createdAt,value
2019-03-03T00:01:39.234Z,92.70
2019-03-03T00:04:08.688Z,98.50
2019-03-03T00:06:39.223Z,97.03
2019-03-03T00:09:12.938Z,90.47
2019-03-03T00:11:47.055Z,96.20
2019-03-03T00:14:21.630Z,97.23
2019-03-03T00:16:51.649Z,94.87
2019-03-03T00:19:23.273Z,100.57
2019-03-03T00:21:55.259Z,93.00
2019-03-03T00:24:24.184Z,90.27
2019-03-03T00:27:00.885Z,93.83
2019-03-03T00:29:33.230Z,91.87
2019-03-03T00:32:05.999Z,93.07
2019-03-03T00:34:48.905Z,93.87
2019-03-03T00:37:58.603Z,102.23
2019-03-03T00:40:52.430Z,96.70
2019-03-03T00:44:01.224Z,94.00
2019-03-03T00:46:49.470Z,95.87
2019-03-03T00:49:38.224Z,98.20
2019-03-03T00:52:22.210Z,92.20
2019-03-03T00:55:14.424Z,94.00
2019-03-03T00:58:11.443Z,95.57
2019-03-03T01:01:05.181Z,95.30
2019-03-03T01:03:49.330Z,94.60
2019-03-03T01:06:48.351Z,97.63
2019-03-03T01:09:57.311Z,94.17
2019-03-03T01:12:46.786Z,92.93
2019-03-03T01:15:24.151Z,98.23
2019-03-03T01:18:13.336Z,90.87
2019-03-03T01:20:56.403Z,95.40
2019-03-03T01:23:51.131Z,98.23
2019-03-03T01:26:21.331Z,94.43
2019-03-03T01:28:56.545Z,94.23
2019-03-03T01:31:29.191Z,92.93
2019-03-03T01:34:02.031Z,92.10
2019-03-03T01:36:30.346Z,90.10
2019-03-03T01:38:58.274Z,95.63
2019-03-03T01:41:26.296Z,92.80
2019-03-03T01:43:54.299Z,93.40
2019-03-03T01:46:22.365Z,98.53
2019-03-03T01:48:50.311Z,91.80
2019-03-03T01:51:18.292Z,95.20
2019-03-03T01:53:46.548Z,97.20
2019-03-03T01:56:14.543Z,102.10
2019-03-03T01:58:42.510Z,90.97
2019-03-03T02:01:10.575Z,108.03
2019-03-03T02:03:38.736Z,95.67
2019-03-03T02:06:06.791Z,99.07
2019-03-03T02:08:34.777Z,98.93
2019-03-03T02:11:02.759Z,95.43
2019-03-03T02:13:30.695Z,94.77
2019-03-03T02:15:58.684Z,98.30
2019-03-03T02:18:26.633Z,95.67
2019-03-03T02:20:54.929Z,92.17
2019-03-03T02:23:22.880Z,95.20
2019-03-03T02:25:50.962Z,96.23
2019-03-03T02:28:19.343Z,90.90
2019-03-03T02:30:47.401Z,96.67
2019-03-03T02:33:15.377Z,92.73
2019-03-03T02:35:43.365Z,96.63
2019-03-03T02:38:11.351Z,104.20
2019-03-03T02:40:39.298Z,97.53
2019-03-03T02:43:07.247Z,97.63
2019-03-03T02:45:35.241Z,102.80
2019-03-03T02:48:03.235Z,94.03
2019-03-03T02:50:31.297Z,95.90
2019-03-03T02:52:59.359Z,97.40
2019-03-03T02:55:27.227Z,97.37
2019-03-03T02:57:56.123Z,98.50
2019-03-03T03:00:24.051Z,102.40
2019-03-03T03:02:53.497Z,101.20
2019-03-03T03:05:37.529Z,93.50
2019-03-03T03:08:08.474Z,100.63
2019-03-03T03:11:10.442Z,97.50
2019-03-03T03:13:56.309Z,95.60
2019-03-03T03:16:35.940Z,101.60
2019-03-03T03:19:23.022Z,99.30
2019-03-03T03:21:58.839Z,96.77
2019-03-03T03:24:45.600Z,95.27
2019-03-03T03:27:38.330Z,97.47
2019-03-03T03:30:31.266Z,96.17
2019-03-03T03:33:05.874Z,97.93
2019-03-03T03:35:39.288Z,99.87
2019-03-03T03:38:19.610Z,100.53
2019-03-03T03:40:53.972Z,105.27
2019-03-03T03:43:35.124Z,103.10
2019-03-03T03:46:34.306Z,98.00
2019-03-03T03:49:21.236Z,99.07
2019-03-03T03:52:08.497Z,98.20
2019-03-03T03:55:02.161Z,102.33
2019-03-03T03:57:39.008Z,98.87
2019-03-03T04:00:13.407Z,105.53
2019-03-03T04:03:15.762Z,104.70
2019-03-03T04:06:02.965Z,99.17
2019-03-03T04:08:35.712Z,102.37
2019-03-03T04:11:28.722Z,103.00
2019-03-03T04:14:03.891Z,97.50
2019-03-03T04:16:43.836Z,101.67
2019-03-03T04:19:28.762Z,104.87
2019-03-03T04:22:14.520Z,93.77
2019-03-03T04:25:01.557Z,97.53
2019-03-03T04:27:42.226Z,96.60
2019-03-03T04:30:29.279Z,97.67
2019-03-03T04:33:14.913Z,103.40
2019-03-03T04:36:00.129Z,107.07
2019-03-03T04:38:39.184Z,113.07
2019-03-03T04:41:24.718Z,98.13
2019-03-03T04:44:23.964Z,105.30
2019-03-03T04:47:11.106Z,100.30
2019-03-03T04:49:53.770Z,100.43
2019-03-03T04:52:46.486Z,104.30
2019-03-03T04:55:27.275Z,103.83
2019-03-03T04:58:03.150Z,102.43
2019-03-03T05:00:50.161Z,101.53
2019-03-03T05:03:37.136Z,104.67
2019-03-03T05:06:32.227Z,106.17
2019-03-03T05:09:21.541Z,105.13
2019-03-03T05:12:38.612Z,103.77
2019-03-03T05:15:24.272Z,102.40
2019-03-03T05:17:58.199Z,113.90
2019-03-03T05:20:26.180Z,107.33
2019-03-03T05:22:54.071Z,104.50
2019-03-03T05:25:23.033Z,100.67
2019-03-03T05:27:50.980Z,99.93
2019-03-03T05:30:18.982Z,97.40
2019-03-03T05:32:46.889Z,101.60
2019-03-03T05:35:14.771Z,97.13
2019-03-03T05:37:42.713Z,105.70
2019-03-03T05:40:10.748Z,104.07
2019-03-03T05:42:38.639Z,110.33
2019-03-03T05:45:06.576Z,101.00
2019-03-03T05:47:34.517Z,99.37
2019-03-03T05:50:02.583Z,103.07
2019-03-03T05:52:30.558Z,104.90
2019-03-03T05:54:58.489Z,100.47
2019-03-03T05:57:26.427Z,99.10
2019-03-03T05:59:54.331Z,103.27
2019-03-03T06:02:22.298Z,106.70
2019-03-03T06:04:50.388Z,101.20
2019-03-03T06:07:18.261Z,100.40
2019-03-03T06:09:46.303Z,105.30
2019-03-03T06:12:14.173Z,108.20
2019-03-03T06:14:42.053Z,106.27
2019-03-03T06:17:10.045Z,103.83
2019-03-03T06:19:37.989Z,103.23
2019-03-03T06:22:06.936Z,102.23
2019-03-03T06:24:34.979Z,102.87
2019-03-03T06:27:02.967Z,103.60
2019-03-03T06:29:30.866Z,105.37
2019-03-03T06:31:58.842Z,107.10
2019-03-03T06:34:26.880Z,103.53
2019-03-03T06:36:54.777Z,105.27
2019-03-03T06:39:22.855Z,103.33
2019-03-03T06:41:50.831Z,101.77
2019-03-03T06:44:19.706Z,104.00
2019-03-03T06:46:47.649Z,101.40
2019-03-03T06:49:15.693Z,99.77
2019-03-03T06:51:43.664Z,100.30
2019-03-03T06:54:11.640Z,106.90
2019-03-03T06:56:39.634Z,100.23
2019-03-03T06:59:07.699Z,99.57
2019-03-03T07:01:35.671Z,95.90
2019-03-03T07:04:03.641Z,98.60
2019-03-03T07:06:31.694Z,96.30
2019-03-03T07:08:59.649Z,97.93
2019-03-03T07:11:27.632Z,102.07
2019-03-03T07:13:55.614Z,96.87
2019-03-03T07:16:23.688Z,104.17
2019-03-03T07:18:51.611Z,100.27
2019-03-03T07:21:19.519Z,97.87
2019-03-03T07:23:47.562Z,96.40
2019-03-03T07:26:15.559Z,102.43
2019-03-03T07:28:43.615Z,98.83
2019-03-03T07:31:11.577Z,100.63
2019-03-03T07:33:42.931Z,98.70
2019-03-03T07:36:10.911Z,99.37
2019-03-03T07:38:38.877Z,98.80
2019-03-03T07:41:06.873Z,104.90
2019-03-03T07:43:34.841Z,106.90
2019-03-03T07:46:02.902Z,107.03
2019-03-03T07:48:30.945Z,102.67
2019-03-03T07:50:58.939Z,103.10
2019-03-03T07:53:26.879Z,109.00
2019-03-03T07:55:54.895Z,100.17
2019-03-03T07:58:22.889Z,101.87
2019-03-03T08:00:50.831Z,100.10
2019-03-03T08:03:18.889Z,97.90
2019-03-03T08:05:46.959Z,105.13
2019-03-03T08:08:14.918Z,101.20
2019-03-03T08:10:42.890Z,100.27
2019-03-03T08:13:10.969Z,101.20
2019-03-03T08:15:38.921Z,102.30
2019-03-03T08:18:06.907Z,102.77
2019-03-03T08:20:34.887Z,97.07
2019-03-03T08:23:03.520Z,94.80
2019-03-03T08:25:31.637Z,102.47
2019-03-03T08:27:59.581Z,97.57
2019-03-03T08:30:27.563Z,98.50
2019-03-03T08:32:55.529Z,99.20
2019-03-03T08:35:23.588Z,100.63
2019-03-03T08:37:51.974Z,100.67
2019-03-03T08:40:19.961Z,97.60
2019-03-03T08:42:52.918Z,100.53
2019-03-03T08:45:39.928Z,101.20
2019-03-03T08:48:45.288Z,98.93
2019-03-03T08:51:31.026Z,100.80
2019-03-03T08:54:20.910Z,96.60
2019-03-03T08:57:17.380Z,99.20
2019-03-03T09:00:04.398Z,97.70
2019-03-03T09:03:03.779Z,98.33
2019-03-03T09:05:53.516Z,101.07
2019-03-03T09:08:30.164Z,105.17
2019-03-03T09:11:04.084Z,99.80
2019-03-03T09:13:53.955Z,97.37
2019-03-03T09:16:38.200Z,102.70
2019-03-03T09:19:16.509Z,107.63
2019-03-03T09:22:04.743Z,103.37
2019-03-03T09:24:50.979Z,104.77
2019-03-03T09:27:35.132Z,101.10
2019-03-03T09:30:28.037Z,101.87
2019-03-03T09:33:21.190Z,100.60
2019-03-03T09:36:14.473Z,101.10
2019-03-03T09:39:00.465Z,101.00
2019-03-03T09:41:47.527Z,100.93
2019-03-03T09:44:34.471Z,96.63
2019-03-03T09:47:16.325Z,95.23
2019-03-03T09:49:52.465Z,98.67
2019-03-03T09:52:38.315Z,95.10
2019-03-03T09:55:15.112Z,97.13
2019-03-03T09:58:02.132Z,93.27
2019-03-03T10:00:49.131Z,94.83
2019-03-03T10:03:41.983Z,93.20
2019-03-03T10:06:24.100Z,84.97
2019-03-03T10:09:09.805Z,83.77
2019-03-03T10:11:50.451Z,83.07
2019-03-03T10:14:49.775Z,89.20
2019-03-03T10:17:42.929Z,78.40
2019-03-03T10:20:23.949Z,78.20
2019-03-03T10:23:23.049Z,82.40
2019-03-03T10:26:08.066Z,76.67
2019-03-03T10:29:07.009Z,77.97
2019-03-03T10:32:06.488Z,78.23
2019-03-03T10:34:59.206Z,81.20
2019-03-03T10:37:45.155Z,80.07
2019-03-03T10:40:23.173Z,82.10
2019-03-03T10:43:13.299Z,80.67
2019-03-03T10:46:03.369Z,83.00
2019-03-03T10:48:56.677Z,79.10
2019-03-03T10:51:58.981Z,81.20
2019-03-03T10:54:41.935Z,78.37
2019-03-03T10:57:30.414Z,74.20
2019-03-03T11:00:17.472Z,75.60
2019-03-03T11:03:11.054Z,74.00
2019-03-03T11:05:48.793Z,76.93
2019-03-03T11:08:34.386Z,74.57
2019-03-03T11:11:30.201Z,77.30
2019-03-03T11:14:16.300Z,73.77
2019-03-03T11:17:02.623Z,73.90
2019-03-03T11:19:45.803Z,76.00
2019-03-03T11:22:28.134Z,74.77
2019-03-03T11:25:05.938Z,73.43
2019-03-03T11:28:11.344Z,71.47
2019-03-03T11:30:56.887Z,73.27
2019-03-03T11:33:43.819Z,73.50
2019-03-03T11:36:19.204Z,80.13
2019-03-03T11:39:04.955Z,74.80
2019-03-03T11:41:55.037Z,76.13
2019-03-03T11:44:44.956Z,75.27
2019-03-03T11:47:34.771Z,93.80
2019-03-03T11:50:20.681Z,70.53
2019-03-03T11:53:09.388Z,71.80
2019-03-03T11:55:48.085Z,72.07
2019-03-03T11:58:33.960Z,72.47
2019-03-03T12:01:26.803Z,76.93
2019-03-03T12:04:12.768Z,75.57
2019-03-03T12:06:50.608Z,74.27
2019-03-03T12:09:42.248Z,70.80
2019-03-03T12:12:38.340Z,71.90
2019-03-03T12:15:11.188Z,78.37
2019-03-03T12:18:01.429Z,75.80
2019-03-03T12:20:49.182Z,73.20
2019-03-03T12:23:27.910Z,71.50
2019-03-03T12:26:18.510Z,70.80
2019-03-03T12:29:05.176Z,75.23
2019-03-03T12:31:46.285Z,77.77
2019-03-03T12:34:43.131Z,71.60
2019-03-03T12:37:33.540Z,71.20
2019-03-03T12:40:11.635Z,71.30
2019-03-03T12:42:58.671Z,70.17
2019-03-03T12:45:37.055Z,72.00
2019-03-03T12:48:24.039Z,70.27
2019-03-03T12:51:23.187Z,72.10
2019-03-03T12:54:25.275Z,71.57
2019-03-03T12:57:05.077Z,70.07
2019-03-03T12:59:40.750Z,70.50
2019-03-03T13:02:31.103Z,71.70
2019-03-03T13:05:37.732Z,71.33
2019-03-03T13:08:43.165Z,67.50
2019-03-03T13:11:42.815Z,68.30
2019-03-03T13:14:32.510Z,68.40
2019-03-03T13:17:16.398Z,66.30
2019-03-03T13:19:53.604Z,67.27
2019-03-03T13:22:43.941Z,69.87
2019-03-03T13:25:21.165Z,72.00
2019-03-03T13:28:14.295Z,67.50
2019-03-03T13:30:59.953Z,67.87
2019-03-03T13:33:49.846Z,67.57
2019-03-03T13:36:35.932Z,70.90
2019-03-03T13:39:32.050Z,69.37
2019-03-03T13:42:28.165Z,68.03
2019-03-03T13:44:56.287Z,67.67
2019-03-03T13:47:24.284Z,68.00
2019-03-03T13:49:52.270Z,67.67
2019-03-03T13:52:20.241Z,66.47
2019-03-03T13:54:48.371Z,66.20
2019-03-03T13:57:16.567Z,67.77
2019-03-03T13:59:44.542Z,67.07
2019-03-03T14:02:13.988Z,66.87
2019-03-03T14:04:42.069Z,68.17
2019-03-03T14:07:09.969Z,71.13
2019-03-03T14:09:38.045Z,67.17
2019-03-03T14:12:06.343Z,68.17
2019-03-03T14:14:34.464Z,67.47
2019-03-03T14:17:02.494Z,67.57
2019-03-03T14:19:30.450Z,74.13
2019-03-03T14:21:58.514Z,68.70
2019-03-03T14:24:26.505Z,70.20
2019-03-03T14:26:54.543Z,70.50
2019-03-03T14:29:22.536Z,68.80
2019-03-03T14:31:50.496Z,74.27
2019-03-03T14:34:18.476Z,66.20
2019-03-03T14:36:46.471Z,67.67
2019-03-03T14:39:14.750Z,71.00
2019-03-03T14:41:42.810Z,71.07
2019-03-03T14:44:10.829Z,73.07
2019-03-03T14:46:38.859Z,68.60
2019-03-03T14:49:06.929Z,72.97
2019-03-03T14:51:34.994Z,71.90
2019-03-03T14:54:02.959Z,69.37
2019-03-03T14:56:30.973Z,68.10
2019-03-03T14:58:59.076Z,67.47
2019-03-03T15:01:27.084Z,67.90
2019-03-03T15:03:55.177Z,67.83
2019-03-03T15:06:24.692Z,69.47
2019-03-03T15:08:53.103Z,67.80
2019-03-03T15:11:21.403Z,67.90
2019-03-03T15:13:49.470Z,67.80
2019-03-03T15:16:17.451Z,70.10
2019-03-03T15:18:45.420Z,73.33
2019-03-03T15:21:24.526Z,74.20
2019-03-03T15:23:45.320Z,68.10
2019-03-03T15:26:13.413Z,67.33
2019-03-03T15:28:41.465Z,66.00
2019-03-03T15:31:09.844Z,66.97
2019-03-03T15:33:37.961Z,67.57
2019-03-03T15:36:05.976Z,66.20
2019-03-03T15:38:33.966Z,67.10
2019-03-03T15:41:01.912Z,68.63
2019-03-03T15:43:29.827Z,66.37
2019-03-03T15:45:57.767Z,70.90
2019-03-03T15:48:25.836Z,66.00
2019-03-03T15:50:53.900Z,70.70
2019-03-03T15:53:21.883Z,69.10
2019-03-03T15:55:49.863Z,67.10
2019-03-03T15:58:17.833Z,66.57
2019-03-03T16:00:45.987Z,69.40
2019-03-03T16:03:13.949Z,73.00
2019-03-03T16:05:41.980Z,74.53
2019-03-03T16:08:09.992Z,78.50
2019-03-03T16:10:37.942Z,72.77
2019-03-03T16:13:06.031Z,69.60
2019-03-03T16:15:34.140Z,70.97
2019-03-03T16:18:02.585Z,71.47
2019-03-03T16:20:30.626Z,68.70
2019-03-03T16:22:58.684Z,68.10
2019-03-03T16:25:26.731Z,68.70
2019-03-03T16:27:54.775Z,69.43
2019-03-03T16:30:22.961Z,70.20
2019-03-03T16:32:50.923Z,69.60
2019-03-03T16:35:18.991Z,68.07
2019-03-03T16:37:47.083Z,69.73
2019-03-03T16:40:16.221Z,67.73
2019-03-03T16:42:44.242Z,68.60
2019-03-03T16:45:12.826Z,66.97
2019-03-03T16:47:40.877Z,68.47
2019-03-03T16:50:09.875Z,67.90
2019-03-03T16:52:37.869Z,66.47
2019-03-03T16:55:06.005Z,69.70
2019-03-03T16:57:33.994Z,67.43
2019-03-03T17:00:02.010Z,70.67
2019-03-03T17:02:29.979Z,67.80
2019-03-03T17:04:57.981Z,67.07
2019-03-03T17:07:26.010Z,69.20
2019-03-03T17:09:53.931Z,68.17
2019-03-03T17:12:21.914Z,67.73
2019-03-03T17:14:49.922Z,67.97
2019-03-03T17:17:18.285Z,71.63
2019-03-03T17:19:46.669Z,69.67
2019-03-03T17:22:14.781Z,70.10
2019-03-03T17:24:43.276Z,69.63
2019-03-03T17:27:11.700Z,67.50
2019-03-03T17:29:39.937Z,68.80
2019-03-03T17:32:08.903Z,68.50
2019-03-03T17:34:37.372Z,69.57
2019-03-03T17:37:05.976Z,70.57
2019-03-03T17:39:33.956Z,69.67
2019-03-03T17:42:02.252Z,75.90
2019-03-03T17:44:30.296Z,69.33
2019-03-03T17:46:58.224Z,70.13
2019-03-03T17:49:26.267Z,68.50
2019-03-03T17:51:54.235Z,74.23
2019-03-03T17:54:22.182Z,69.90
2019-03-03T17:56:50.157Z,69.40
2019-03-03T17:59:18.117Z,70.97
2019-03-03T18:01:46.140Z,68.80
2019-03-03T18:04:14.051Z,68.90
2019-03-03T18:06:42.103Z,69.47
2019-03-03T18:09:10.014Z,69.10
2019-03-03T18:11:38.075Z,70.17
2019-03-03T18:14:06.076Z,71.90
2019-03-03T18:16:34.104Z,69.70
2019-03-03T18:19:02.078Z,71.63
2019-03-03T18:21:30.059Z,69.10
2019-03-03T18:23:58.074Z,68.60
2019-03-03T18:26:26.113Z,69.40
2019-03-03T18:28:54.307Z,69.30
2019-03-03T18:31:22.273Z,70.70
2019-03-03T18:33:50.328Z,72.30
2019-03-03T18:36:18.501Z,74.47
2019-03-03T18:38:46.527Z,74.93
2019-03-03T18:41:14.589Z,73.77
2019-03-03T18:43:42.528Z,77.50
2019-03-03T18:46:10.591Z,82.03
2019-03-03T18:48:38.666Z,81.40
2019-03-03T18:51:06.733Z,83.17
2019-03-03T18:53:34.914Z,81.87
2019-03-03T18:56:02.871Z,78.60
2019-03-03T18:58:30.972Z,78.00
2019-03-03T19:00:58.945Z,74.33
2019-03-03T19:03:26.911Z,76.07
2019-03-03T19:05:56.042Z,76.37
2019-03-03T19:08:25.582Z,76.00
2019-03-03T19:10:53.683Z,75.70
2019-03-03T19:13:21.627Z,75.40
2019-03-03T19:15:49.728Z,77.67
2019-03-03T19:18:17.733Z,75.60
2019-03-03T19:20:45.838Z,74.00
2019-03-03T19:23:13.883Z,76.10
2019-03-03T19:25:41.909Z,83.73
2019-03-03T19:28:09.833Z,77.03
2019-03-03T19:30:37.833Z,77.13
2019-03-03T19:33:10.133Z,75.67
2019-03-03T19:35:38.227Z,79.57
2019-03-03T19:38:06.298Z,77.73
2019-03-03T19:40:34.279Z,79.67
2019-03-03T19:43:02.282Z,82.00
2019-03-03T19:45:31.077Z,80.27
2019-03-03T19:47:59.246Z,76.23
2019-03-03T19:50:27.288Z,72.77
2019-03-03T19:52:55.339Z,72.60
2019-03-03T19:55:23.433Z,70.27
2019-03-03T19:57:51.586Z,77.83
2019-03-03T20:00:20.925Z,73.83
2019-03-03T20:02:48.915Z,73.57
2019-03-03T20:05:17.091Z,79.17
2019-03-03T20:07:45.167Z,82.37
2019-03-03T20:10:13.421Z,82.07
2019-03-03T20:12:41.925Z,77.97
2019-03-03T20:15:09.969Z,77.27
2019-03-03T20:17:38.097Z,88.27
2019-03-03T20:20:07.196Z,92.67
2019-03-03T20:22:37.540Z,80.43
2019-03-03T20:25:05.219Z,86.73
2019-03-03T20:27:33.300Z,81.30
2019-03-03T20:30:01.248Z,78.33
2019-03-03T20:32:29.217Z,78.17
2019-03-03T20:34:57.387Z,77.10
2019-03-03T20:37:25.349Z,74.20
2019-03-03T20:39:53.473Z,88.70
2019-03-03T20:42:21.427Z,78.30
2019-03-03T20:44:49.338Z,80.67
2019-03-03T20:47:17.280Z,80.50
2019-03-03T20:49:45.219Z,79.73
2019-03-03T20:52:13.191Z,79.73
2019-03-03T20:54:41.255Z,78.80
2019-03-03T20:57:09.372Z,77.77
2019-03-03T20:59:37.488Z,78.80
2019-03-03T21:02:05.536Z,78.43
2019-03-03T21:04:33.466Z,81.70
2019-03-03T21:07:01.571Z,79.13
2019-03-03T21:09:29.472Z,78.63
2019-03-03T21:11:57.564Z,78.60
2019-03-03T21:14:25.609Z,78.73
2019-03-03T21:16:53.568Z,74.03
2019-03-03T21:19:21.581Z,78.20
2019-03-03T21:21:49.580Z,76.90
2019-03-03T21:24:17.669Z,78.60
2019-03-03T21:26:45.913Z,76.23
2019-03-03T21:29:14.081Z,79.50
2019-03-03T21:31:42.146Z,74.80
2019-03-03T21:34:10.239Z,76.30
2019-03-03T21:36:38.450Z,75.37
2019-03-03T21:39:07.666Z,78.43
2019-03-03T21:41:35.832Z,74.30
2019-03-03T21:44:03.830Z,79.57
2019-03-03T21:46:32.599Z,73.10
2019-03-03T21:49:00.761Z,73.47
2019-03-03T21:51:29.084Z,77.20
2019-03-03T21:53:57.314Z,75.47
2019-03-03T21:56:25.302Z,78.30
2019-03-03T21:58:53.381Z,76.60
2019-03-03T22:01:21.304Z,78.67
2019-03-03T22:03:49.311Z,78.47
2019-03-03T22:06:17.293Z,80.90
2019-03-03T22:08:45.404Z,76.63
2019-03-03T22:11:13.577Z,77.13
2019-03-03T22:13:41.892Z,75.40
2019-03-03T22:16:09.951Z,75.97
2019-03-03T22:18:37.949Z,77.43
2019-03-03T22:21:06.040Z,82.00
2019-03-03T22:23:34.127Z,76.70
2019-03-03T22:26:02.152Z,78.37
2019-03-03T22:28:30.149Z,74.50
2019-03-03T22:30:58.603Z,74.80
2019-03-03T22:33:26.586Z,71.40
2019-03-03T22:35:54.629Z,75.20
2019-03-03T22:38:22.587Z,74.77
2019-03-03T22:40:50.632Z,76.70
2019-03-03T22:43:18.549Z,74.10
2019-03-03T22:45:46.703Z,75.13
2019-03-03T22:48:15.353Z,77.20
2019-03-03T22:50:43.365Z,76.20
2019-03-03T22:53:11.589Z,75.63
2019-03-03T22:55:40.462Z,76.57
2019-03-03T22:58:08.783Z,76.37
2019-03-03T23:00:45.692Z,77.27
2019-03-03T23:03:14.900Z,73.60
2019-03-03T23:05:52.542Z,73.70
2019-03-03T23:08:26.600Z,74.10
2019-03-03T23:11:19.608Z,75.07
2019-03-03T23:13:50.388Z,73.33
2019-03-03T23:16:36.190Z,73.90
2019-03-03T23:19:21.249Z,73.47
2019-03-03T23:22:08.328Z,75.57
2019-03-03T23:24:58.432Z,74.97
2019-03-03T23:27:26.509Z,76.47
2019-03-03T23:29:54.538Z,77.83
2019-03-03T23:32:22.641Z,76.60
2019-03-03T23:34:50.611Z,75.80
2019-03-03T23:37:18.593Z,74.97
2019-03-03T23:39:46.622Z,76.97
2019-03-03T23:42:14.654Z,73.17
2019-03-03T23:44:42.739Z,77.63
2019-03-03T23:47:10.710Z,73.40
2019-03-03T23:49:39.770Z,72.90
2019-03-03T23:52:07.755Z,75.20
2019-03-03T23:54:35.720Z,75.27
2019-03-03T23:57:03.808Z,79.97
2019-03-03T23:59:31.795Z,74.30
